Time;durP1;ratioP1;P1;durP2;ratioP2;P2;SDS_P1;SDS_P2;PMS_P1;PMS_P2;Temp;Humidity;BMP_temperature;BMP_pressure;BME280_temperature;BME280_humidity;BME280_pressure;Samples;Min_cycle;Max_cycle;Signal;HPM_P1;HPM_P2
2023/02/06 00:01:05;;;;;;;15.70;8.40;;;;;;;;;;4995558;28;20589;-85
2023/02/06 00:03:32;;;;;;;17.03;7.37;;;;;;;;;;4996750;28;20485;-83
2023/02/06 00:05:59;;;;;;;14.97;8.77;;;;;;;;;;4996635;28;20481;-86
2023/02/06 00:08:33;;;;;;;16.37;7.83;;;;;;;;;;4995370;28;20436;-85
2023/02/06 00:11:06;;;;;;;13.23;8.07;;;;;;;;;;4996100;28;20427;-86
2023/02/06 00:13:35;;;;;;;16.00;10.10;;;;;;;;;;4996116;28;20419;-85
2023/02/06 00:16:01;;;;;;;19.10;8.87;;;;;;;;;;4995316;28;20416;-86
2023/02/06 00:18:27;;;;;;;14.10;8.90;;;;;;;;;;4995227;28;20435;-86
2023/02/06 00:20:53;;;;;;;15.20;6.60;;;;;;;;;;4995220;28;21017;-86
2023/02/06 00:23:19;;;;;;;17.97;7.47;;;;;;;;;;4995068;28;20444;-84
2023/02/06 00:25:46;;;;;;;16.17;8.30;;;;;;;;;;4996129;28;20431;-86
2023/02/06 00:28:13;;;;;;;13.00;8.27;;;;;;;;;;4995129;28;21138;-86
2023/02/06 00:30:45;;;;;;;20.37;9.10;;;;;;;;;;4994854;28;20427;-86
2023/02/06 00:33:12;;;;;;;15.67;8.80;;;;;;;;;;4994845;28;20423;-85
2023/02/06 00:35:38;;;;;;;13.40;7.30;;;;;;;;;;4994959;28;20438;-86
2023/02/06 00:38:07;;;;;;;13.67;8.00;;;;;;;;;;4995072;28;20437;-86
2023/02/06 00:40:34;;;;;;;13.10;7.47;;;;;;;;;;4994376;28;20470;-85
2023/02/06 00:43:00;;;;;;;14.10;9.10;;;;;;;;;;4994468;28;20430;-86
2023/02/06 00:45:43;;;;;;;12.10;7.60;;;;;;;;;;4994795;28;20418;-85
2023/02/06 00:48:15;;;;;;;13.03;7.40;;;;;;;;;;4994291;28;20431;-86
2023/02/06 00:50:51;;;;;;;10.67;7.40;;;;;;;;;;4996066;28;20414;-87
2023/02/06 00:53:19;;;;;;;13.07;7.50;;;;;;;;;;4996125;28;20437;-86
2023/02/06 00:55:50;;;;;;;11.53;7.00;;;;;;;;;;4978307;28;20477;-85
2023/02/06 00:58:17;;;;;;;11.83;7.80;;;;;;;;;;4995931;28;20867;-86
2023/02/06 01:00:49;;;;;;;11.00;6.00;;;;;;;;;;4978404;28;20573;-85
2023/02/06 01:03:15;;;;;;;9.50;5.37;;;;;;;;;;4994537;28;20419;-87
2023/02/06 01:05:42;;;;;;;11.40;6.00;;;;;;;;;;4994503;28;20909;-86
2023/02/06 01:08:09;;;;;;;12.70;7.77;;;;;;;;;;4993660;28;20443;-84
2023/02/06 01:10:35;;;;;;;10.37;7.23;;;;;;;;;;4995150;28;20407;-84
2023/02/06 01:13:02;;;;;;;15.37;7.47;;;;;;;;;;4994325;28;20438;-84
2023/02/06 01:15:28;;;;;;;11.13;6.43;;;;;;;;;;4995393;28;20473;-84
2023/02/06 01:17:56;;;;;;;12.23;5.83;;;;;;;;;;4995452;28;20416;-84
2023/02/06 01:20:25;;;;;;;12.20;5.90;;;;;;;;;;4995182;28;20474;-84
2023/02/06 01:23:10;;;;;;;18.27;6.53;;;;;;;;;;4995249;28;20429;-85
2023/02/06 01:25:50;;;;;;;8.97;6.20;;;;;;;;;;4997547;28;20432;-85
2023/02/06 01:28:16;;;;;;;11.83;4.63;;;;;;;;;;4993880;28;21015;-85
2023/02/06 01:30:42;;;;;;;8.93;6.10;;;;;;;;;;4995124;28;20407;-85
2023/02/06 01:33:11;;;;;;;11.13;5.80;;;;;;;;;;4995151;28;20923;-84
2023/02/06 01:35:37;;;;;;;8.87;5.17;;;;;;;;;;4993721;28;20419;-83
2023/02/06 01:38:03;;;;;;;7.00;4.80;;;;;;;;;;4993721;28;20438;-84
2023/02/06 01:40:29;;;;;;;10.63;5.23;;;;;;;;;;4993318;28;20568;-86
2023/02/06 01:42:55;;;;;;;9.37;5.57;;;;;;;;;;4993085;28;20419;-85
2023/02/06 01:45:24;;;;;;;6.87;4.70;;;;;;;;;;4993617;28;20777;-85
2023/02/06 01:47:51;;;;;;;7.60;4.40;;;;;;;;;;4993684;28;20501;-84
2023/02/06 01:50:19;;;;;;;6.90;4.10;;;;;;;;;;4994698;28;20522;-85
2023/02/06 01:52:46;;;;;;;6.17;4.40;;;;;;;;;;4994826;28;20943;-85
2023/02/06 01:55:12;;;;;;;10.20;5.33;;;;;;;;;;4993036;28;20429;-85
2023/02/06 01:57:40;;;;;;;7.87;4.80;;;;;;;;;;4994699;28;20442;-85
2023/02/06 02:00:08;;;;;;;9.90;6.67;;;;;;;;;;4994590;28;20813;-84
2023/02/06 02:02:35;;;;;;;10.27;6.00;;;;;;;;;;4993234;28;20438;-85
2023/02/06 02:05:02;;;;;;;9.33;5.60;;;;;;;;;;4993417;28;20422;-86
2023/02/06 02:07:30;;;;;;;13.43;5.43;;;;;;;;;;4977390;28;20838;-87
2023/02/06 02:09:56;;;;;;;9.30;4.63;;;;;;;;;;4976906;28;20427;-86
2023/02/06 02:12:25;;;;;;;8.27;3.63;;;;;;;;;;4992399;28;20459;-86
2023/02/06 02:14:53;;;;;;;7.03;5.60;;;;;;;;;;4993277;28;20987;-85
2023/02/06 02:17:32;;;;;;;10.30;5.03;;;;;;;;;;4976862;28;20475;-85
2023/02/06 02:20:18;;;;;;;8.17;4.57;;;;;;;;;;4993753;28;20444;-85
2023/02/06 02:23:06;;;;;;;8.27;4.40;;;;;;;;;;4992510;28;20916;-84
2023/02/06 02:25:46;;;;;;;8.07;4.30;;;;;;;;;;4983881;28;20466;-84
2023/02/06 02:28:29;;;;;;;8.27;4.17;;;;;;;;;;4992942;28;20423;-85
2023/02/06 02:31:14;;;;;;;8.10;4.60;;;;;;;;;;4992762;28;20422;-85
2023/02/06 02:34:05;;;;;;;9.33;4.67;;;;;;;;;;4994189;28;20458;-85
2023/02/06 02:36:36;;;;;;;11.90;4.60;;;;;;;;;;4992474;28;20738;-84
2023/02/06 02:39:09;;;;;;;8.53;3.27;;;;;;;;;;4993750;28;20874;-85
2023/02/06 02:41:43;;;;;;;11.70;4.80;;;;;;;;;;4993843;28;20470;-85
2023/02/06 02:44:20;;;;;;;12.23;6.03;;;;;;;;;;4993859;28;20479;-85
2023/02/06 02:46:49;;;;;;;9.03;4.60;;;;;;;;;;4993917;28;20986;-86
2023/02/06 02:49:23;;;;;;;7.87;4.13;;;;;;;;;;4994055;28;20407;-86
2023/02/06 02:51:52;;;;;;;10.50;5.50;;;;;;;;;;4994535;28;20418;-86
2023/02/06 02:54:18;;;;;;;7.90;4.33;;;;;;;;;;4987036;28;20415;-88
2023/02/06 02:56:44;;;;;;;7.67;4.40;;;;;;;;;;4993013;28;20430;-87
2023/02/06 02:59:12;;;;;;;8.43;3.67;;;;;;;;;;4977052;28;20424;-87
2023/02/06 03:01:50;;;;;;;10.83;4.63;;;;;;;;;;4993874;28;20541;-86
2023/02/06 03:04:19;;;;;;;14.80;5.37;;;;;;;;;;4992838;28;20457;-87
2023/02/06 03:06:48;;;;;;;12.27;6.40;;;;;;;;;;4992702;28;20419;-86
2023/02/06 03:09:22;;;;;;;11.40;4.70;;;;;;;;;;4992426;28;20510;-87
2023/02/06 03:12:14;;;;;;;5.57;3.73;;;;;;;;;;4992507;28;20466;-86
2023/02/06 03:14:53;;;;;;;8.23;4.17;;;;;;;;;;4971228;28;20907;-87
2023/02/06 03:17:26;;;;;;;6.03;4.40;;;;;;;;;;4994044;28;20415;-86
2023/02/06 03:19:53;;;;;;;7.67;4.40;;;;;;;;;;4993611;28;20407;-86
2023/02/06 03:22:19;;;;;;;12.37;4.13;;;;;;;;;;4992624;28;20522;-86
2023/02/06 03:24:45;;;;;;;4.23;2.70;;;;;;;;;;4991816;28;21033;-84
2023/02/06 03:27:14;;;;;;;6.10;3.90;;;;;;;;;;4992330;28;20430;-87
2023/02/06 03:29:41;;;;;;;8.13;3.80;;;;;;;;;;4993409;28;20423;-85
2023/02/06 03:32:24;;;;;;;6.10;3.57;;;;;;;;;;4992258;28;20418;-85
2023/02/06 03:34:55;;;;;;;10.13;3.37;;;;;;;;;;4993453;28;20419;-86
2023/02/06 03:37:21;;;;;;;7.60;2.90;;;;;;;;;;4993450;28;20407;-86
2023/02/06 03:39:47;;;;;;;9.63;3.40;;;;;;;;;;4991815;28;20426;-87
2023/02/06 03:42:14;;;;;;;10.23;3.37;;;;;;;;;;4993589;28;20427;-85
2023/02/06 03:44:42;;;;;;;9.40;5.20;;;;;;;;;;4993367;28;20826;-85
2023/02/06 03:47:09;;;;;;;4.50;3.27;;;;;;;;;;4993260;28;20408;-84
2023/02/06 03:49:37;;;;;;;4.63;2.37;;;;;;;;;;4992087;28;20424;-85
2023/02/06 03:52:08;;;;;;;4.07;2.53;;;;;;;;;;4992038;28;20417;-85
2023/02/06 03:54:38;;;;;;;5.50;2.60;;;;;;;;;;4992788;28;20419;-84
2023/02/06 03:57:05;;;;;;;8.07;2.80;;;;;;;;;;4991970;28;20471;-84
2023/02/06 03:59:31;;;;;;;9.10;3.33;;;;;;;;;;4991964;28;20507;-85
2023/02/06 04:01:59;;;;;;;4.97;3.00;;;;;;;;;;4991938;28;21011;-84
2023/02/06 04:04:29;;;;;;;4.03;2.20;;;;;;;;;;4991934;28;20998;-85
2023/02/06 04:06:56;;;;;;;5.07;2.13;;;;;;;;;;4994810;28;20471;-85
2023/02/06 04:09:22;;;;;;;8.00;3.30;;;;;;;;;;4995059;28;20415;-84
2023/02/06 04:11:48;;;;;;;13.30;3.57;;;;;;;;;;4995445;28;20770;-85
2023/02/06 04:14:14;;;;;;;3.10;1.50;;;;;;;;;;4996749;28;20419;-86
2023/02/06 04:16:40;;;;;;;6.03;2.80;;;;;;;;;;4995388;28;20428;-85
2023/02/06 04:19:06;;;;;;;6.17;2.10;;;;;;;;;;4995355;28;20925;-87
2023/02/06 04:21:34;;;;;;;4.70;2.43;;;;;;;;;;4998979;28;20473;-86
2023/02/06 04:24:00;;;;;;;5.47;1.60;;;;;;;;;;4996371;28;20458;-83
2023/02/06 04:26:26;;;;;;;4.80;2.43;;;;;;;;;;4996478;28;20411;-85
2023/02/06 04:28:52;;;;;;;10.60;2.13;;;;;;;;;;4995187;28;20924;-85
2023/02/06 04:31:18;;;;;;;9.73;2.80;;;;;;;;;;4995118;28;20426;-84
2023/02/06 04:33:44;;;;;;;3.33;1.93;;;;;;;;;;4996308;28;20415;-86
2023/02/06 04:36:10;;;;;;;13.03;2.90;;;;;;;;;;4996232;28;20418;-85
2023/02/06 04:38:36;;;;;;;6.40;2.70;;;;;;;;;;4994754;28;20458;-85
2023/02/06 04:41:03;;;;;;;10.93;3.87;;;;;;;;;;4994946;28;20482;-86
2023/02/06 04:43:28;;;;;;;10.53;2.13;;;;;;;;;;4996203;28;20412;-86
2023/02/06 04:45:54;;;;;;;10.53;2.43;;;;;;;;;;4994769;28;20935;-85
2023/02/06 04:48:20;;;;;;;12.70;3.37;;;;;;;;;;4994881;28;20423;-86
2023/02/06 04:50:46;;;;;;;9.37;2.63;;;;;;;;;;4996002;28;20526;-86
2023/02/06 04:53:12;;;;;;;5.33;2.03;;;;;;;;;;4994457;28;20915;-87
2023/02/06 04:55:38;;;;;;;6.40;3.03;;;;;;;;;;4995020;28;20438;-87
2023/02/06 04:58:04;;;;;;;6.37;3.30;;;;;;;;;;4996143;28;20411;-84
2023/02/06 05:00:30;;;;;;;9.00;2.23;;;;;;;;;;4995826;28;20958;-86
2023/02/06 05:02:58;;;;;;;2.80;1.70;;;;;;;;;;4995864;28;20435;-85
2023/02/06 05:05:24;;;;;;;5.10;2.07;;;;;;;;;;4995746;28;20505;-86
2023/02/06 05:07:50;;;;;;;7.27;3.13;;;;;;;;;;4995665;28;20438;-86
2023/02/06 05:10:16;;;;;;;5.63;2.20;;;;;;;;;;4994083;28;20419;-85
2023/02/06 05:12:42;;;;;;;1.67;1.37;;;;;;;;;;4995664;28;20411;-86
2023/02/06 05:15:09;;;;;;;4.67;2.23;;;;;;;;;;4995651;28;20755;-85
2023/02/06 05:17:35;;;;;;;7.07;2.40;;;;;;;;;;4993179;28;20477;-85
2023/02/06 05:20:01;;;;;;;6.77;2.10;;;;;;;;;;4994205;28;20563;-85
2023/02/06 05:22:27;;;;;;;4.80;2.20;;;;;;;;;;4995398;28;20414;-85
2023/02/06 05:24:53;;;;;;;8.27;2.00;;;;;;;;;;4995106;28;20493;-86
2023/02/06 05:27:19;;;;;;;8.80;3.93;;;;;;;;;;4994426;28;20877;-84
2023/02/06 05:29:45;;;;;;;6.30;2.80;;;;;;;;;;4994286;28;20435;-87
2023/02/06 05:32:11;;;;;;;6.27;2.40;;;;;;;;;;4994362;28;20509;-86
2023/02/06 05:34:37;;;;;;;4.30;2.03;;;;;;;;;;4995288;28;20422;-82
2023/02/06 05:37:03;;;;;;;3.87;2.07;;;;;;;;;;4994120;28;20426;-86
2023/02/06 05:39:32;;;;;;;4.40;2.20;;;;;;;;;;4993704;28;20778;-85
2023/02/06 05:41:58;;;;;;;7.67;2.87;;;;;;;;;;4978190;28;20481;-85
2023/02/06 05:44:24;;;;;;;9.10;2.53;;;;;;;;;;4977561;28;20972;-85
2023/02/06 05:46:50;;;;;;;10.03;2.70;;;;;;;;;;4993652;28;20782;-85
2023/02/06 05:49:16;;;;;;;8.07;2.53;;;;;;;;;;4977958;28;20432;-85
2023/02/06 05:51:42;;;;;;;9.20;3.07;;;;;;;;;;4957761;28;20438;-84
2023/02/06 05:54:08;;;;;;;6.93;2.60;;;;;;;;;;4965617;28;20803;-83
2023/02/06 05:56:34;;;;;;;5.43;2.30;;;;;;;;;;4975121;28;20477;-83
2023/02/06 05:59:00;;;;;;;5.20;2.40;;;;;;;;;;4974860;28;20412;-84
2023/02/06 06:01:27;;;;;;;5.53;2.13;;;;;;;;;;4973557;28;20897;-84
2023/02/06 06:03:53;;;;;;;3.40;1.10;;;;;;;;;;4974998;28;20445;-85
2023/02/06 06:06:19;;;;;;;13.67;2.93;;;;;;;;;;4974855;28;20422;-84
2023/02/06 06:08:45;;;;;;;2.80;1.63;;;;;;;;;;4973259;28;20913;-85
2023/02/06 06:11:11;;;;;;;21.93;4.33;;;;;;;;;;4972412;28;20427;-84
2023/02/06 06:13:37;;;;;;;19.73;3.50;;;;;;;;;;4974613;28;20422;-85
2023/02/06 06:16:03;;;;;;;2.47;1.40;;;;;;;;;;4973257;28;20430;-85
2023/02/06 06:18:29;;;;;;;7.90;2.77;;;;;;;;;;4972451;28;20424;-85
2023/02/06 06:20:55;;;;;;;8.33;2.93;;;;;;;;;;4973228;28;20482;-85
2023/02/06 06:23:22;;;;;;;4.40;2.60;;;;;;;;;;4973233;28;20836;-84
2023/02/06 06:25:48;;;;;;;7.67;2.40;;;;;;;;;;4972891;28;20470;-83
2023/02/06 06:28:14;;;;;;;9.23;2.43;;;;;;;;;;4972708;28;20439;-85
2023/02/06 06:30:40;;;;;;;7.70;2.60;;;;;;;;;;4974670;28;20408;-86
2023/02/06 06:33:06;;;;;;;5.97;1.70;;;;;;;;;;4973248;28;20795;-86
2023/02/06 06:35:33;;;;;;;12.70;2.23;;;;;;;;;;4973743;28;20414;-85
2023/02/06 06:37:58;;;;;;;3.20;1.43;;;;;;;;;;4989045;28;20478;-87
2023/02/06 06:40:24;;;;;;;9.43;2.40;;;;;;;;;;4988876;28;20467;-86
2023/02/06 06:42:50;;;;;;;8.73;3.60;;;;;;;;;;4989342;28;20436;-85
2023/02/06 06:45:16;;;;;;;5.40;2.37;;;;;;;;;;4988267;28;20445;-85
2023/02/06 06:47:43;;;;;;;4.83;2.37;;;;;;;;;;4989155;28;20534;-86
2023/02/06 06:50:09;;;;;;;6.03;2.03;;;;;;;;;;4973450;28;20424;-85
2023/02/06 06:52:35;;;;;;;4.87;2.33;;;;;;;;;;4988787;28;20431;-87
2023/02/06 06:55:01;;;;;;;3.77;2.13;;;;;;;;;;4973317;28;20424;-85
2023/02/06 06:57:30;;;;;;;3.77;1.67;;;-1.20;99.90;;;;;;4988875;28;20432;-85
2023/02/06 06:59:57;;;;;;;5.40;1.83;;;;;;;;;;4971865;28;20782;-87
2023/02/06 07:02:23;;;;;;;8.63;2.57;;;;;;;;;;4975419;28;20423;-87
2023/02/06 07:04:49;;;;;;;2.53;2.20;;;;;;;;;;4974360;28;20484;-84
2023/02/06 07:07:16;;;;;;;10.80;3.40;;;;;;;;;;4974176;28;20420;-84
2023/02/06 07:09:42;;;;;;;12.33;4.47;;;;;;;;;;4972670;28;20420;-84
2023/02/06 07:12:36;;;;;;;6.33;2.90;;;;;;;;;;4974280;28;20417;-87
2023/02/06 07:15:02;;;;;;;9.83;2.73;;;;;;;;;;4974610;28;20412;-87
2023/02/06 07:17:31;;;;;;;12.73;3.07;;;;;;;;;;4975699;28;20430;-84
2023/02/06 07:19:57;;;;;;;8.17;2.90;;;;;;;;;;4972654;28;20486;-85
2023/02/06 07:22:24;;;;;;;7.93;3.17;;;;;;;;;;4972718;28;20429;-84
2023/02/06 07:24:50;;;;;;;4.70;2.20;;;;;;;;;;4972248;28;20566;-85
2023/02/06 07:27:16;;;;;;;9.87;3.23;;;;;;;;;;4972623;28;20471;-85
2023/02/06 07:29:42;;;;;;;3.97;2.57;;;;;;;;;;4973844;28;20415;-85
2023/02/06 07:32:09;;;;;;;8.33;2.63;;;;;;;;;;4972795;28;20794;-83
2023/02/06 07:34:35;;;;;;;7.17;3.60;;;;;;;;;;4972749;28;20424;-84
2023/02/06 07:37:22;;;;;;;9.10;2.47;;;;;;;;;;4973712;28;20435;-84
2023/02/06 07:39:52;;;;;;;15.73;2.10;;;;;;;;;;4973825;28;20772;-85
2023/02/06 07:42:19;;;;;;;11.77;3.40;;;;;;;;;;4974582;28;20477;-87
2023/02/06 07:44:45;;;;;;;25.13;4.83;;;;;;;;;;4974322;28;20440;-84
2023/02/06 07:47:11;;;;;;;26.73;4.40;;;;;;;;;;4974521;28;20460;-89
2023/02/06 07:49:38;;;;;;;4.37;2.40;;;;;;;;;;4972444;28;20512;-91
2023/02/06 07:52:04;;;;;;;9.87;3.33;;;;;;;;;;4977917;28;20456;-91
2023/02/06 07:54:38;;;;;;;9.50;2.67;;;;;;;;;;4977132;28;20475;-90
2023/02/06 07:57:10;;;;;;;11.93;2.60;;;;;;;;;;4977606;28;20421;-90
2023/02/06 07:59:38;;;;;;;6.33;2.40;;;;;;;;;;4977264;28;20435;-91
2023/02/06 08:02:04;;;;;;;11.17;2.30;;;;;;;;;;4976976;28;20572;-86
2023/02/06 08:04:34;;;;;;;5.23;2.70;;;;;;;;;;4976509;28;20427;-85
2023/02/06 08:07:01;;;;;;;4.67;2.33;;;;;;;;;;4976425;28;20413;-88
2023/02/06 08:09:27;;;;;;;15.00;5.63;;;;;;;;;;4960263;28;20478;-87
2023/02/06 08:11:53;;;;;;;14.40;6.70;;;;;;;;;;4976355;28;20530;-84
2023/02/06 08:14:22;;;;;;;11.80;6.03;;;;;;;;;;4975914;28;20510;-87
2023/02/06 08:16:49;;;;;;;6.73;2.60;;;;;;;;;;4960377;28;20423;-90
2023/02/06 08:19:15;;;;;;;9.93;1.73;;;;;;;;;;4977616;28;20476;-87
2023/02/06 08:21:48;;;;;;;10.93;2.60;;;;;;;;;;4976058;28;20543;-91
2023/02/06 08:24:14;;;;;;;22.77;6.40;;;;;;;;;;4976953;28;20454;-83
2023/02/06 08:26:40;;;;;;;14.90;3.70;;;;;;;;;;4976153;28;20991;-88
2023/02/06 08:29:07;;;;;;;11.10;3.10;;;;;;;;;;4975876;28;20447;-89
2023/02/06 08:31:37;;;;;;;10.20;2.63;;;;;;;;;;4961040;28;20479;-90
2023/02/06 08:34:04;;;;;;;8.83;3.07;;;;;;;;;;4978314;28;20431;-84
2023/02/06 08:36:32;;;;;;;13.77;3.50;;;;;;;;;;4976576;28;20452;-88
2023/02/06 08:39:00;;;;;;;11.00;2.90;;;;;;;;;;4976145;28;20426;-89
2023/02/06 08:41:28;;;;;;;12.93;2.13;;;;;;;;;;4960273;28;20511;-89
2023/02/06 08:43:56;;;;;;;10.20;2.70;;;;;;;;;;4976915;28;20425;-87
2023/02/06 08:46:28;;;;;;;13.73;2.40;;;;;;;;;;4978013;28;20421;-88
2023/02/06 08:49:00;;;;;;;6.30;1.80;;;;;;;;;;4960713;28;20431;-88
2023/02/06 08:51:40;;;;;;;25.40;4.73;;;;;;;;;;4960234;28;20445;-91
2023/02/06 08:56:43;;;;;;;12.93;3.03;;;;;;;;;;4976837;28;20974;-92
2023/02/06 08:59:10;;;;;;;7.57;2.30;;;;;;;;;;4961028;28;20864;-91
2023/02/06 09:01:37;;;;;;;6.17;2.93;;;;;;;;;;4977087;28;20477;-92
2023/02/06 09:04:05;;;;;;;16.73;3.90;;;;;;;;;;4960177;28;20520;-90
2023/02/06 09:06:38;;;;;;;9.17;3.17;;;;;;;;;;4977233;28;20426;-90
2023/02/06 09:09:09;;;;;;;8.93;4.03;;;;;;;;;;4975523;28;20476;-90
2023/02/06 09:11:35;;;;;;;13.30;4.00;;;;;;;;;;4975883;28;20489;-88
2023/02/06 09:14:03;;;;;;;8.00;3.87;;;;;;;;;;4976913;28;20418;-89
2023/02/06 09:16:33;;;;;;;10.80;3.50;;;;;;;;;;4976256;28;20882;-90
2023/02/06 09:19:00;;;;;;;11.30;4.23;;;;;;;;;;4958316;28;20414;-89
2023/02/06 09:21:27;;;;;;;6.50;3.70;;;;;;;;;;4975499;28;20486;-89
2023/02/06 09:23:55;;;;;;;9.37;3.10;;;;;;;;;;4974965;28;20421;-90
2023/02/06 09:26:27;;;;;;;10.30;3.13;;;;;;;;;;4976346;28;20433;-89
2023/02/06 09:29:12;;;;;;;8.83;4.40;;;;;;;;;;4976426;28;20418;-90
2023/02/06 09:31:38;;;;;;;15.80;3.53;;;;;;;;;;4975260;28;20418;-89
2023/02/06 09:34:06;;;;;;;7.93;2.80;;;;;;;;;;4976434;28;20909;-90
2023/02/06 09:36:34;;;;;;;9.03;3.40;;;;;;;;;;4976270;28;20417;-90
2023/02/06 09:39:01;;;;;;;6.73;2.20;;;;;;;;;;4976778;28;20451;-88
2023/02/06 09:41:30;;;;;;;8.20;2.90;;;;;;;;;;4988312;28;20480;-89
2023/02/06 09:43:56;;;;;;;7.60;3.10;;;;;;;;;;4975529;28;20424;-90
2023/02/06 09:46:38;;;;;;;10.33;2.80;;;;;;;;;;4977274;28;20420;-88
2023/02/06 09:49:11;;;;;;;10.03;3.07;;;;;;;;;;4956662;28;20246;-88
2023/02/06 09:51:50;;;;;;;11.63;3.87;;;;;;;;;;4958389;28;20467;-91
2023/02/06 09:54:22;;;;;;;5.53;2.40;;;;;;;;;;4959178;28;20429;-90
2023/02/06 09:57:02;;;;;;;9.27;3.37;;;;;;;;;;4956160;28;20919;-90
2023/02/06 09:59:28;;;;;;;6.63;2.50;;;;;;;;;;4940277;29;20991;-92
2023/02/06 10:02:15;;;;;;;6.40;2.63;;;;;;;;;;4940134;29;20571;-90
2023/02/06 10:04:56;;;;;;;6.90;2.10;;;;;;;;;;4938863;28;20541;-88
2023/02/06 10:07:28;;;;;;;6.20;2.70;;;;;;;;;;4939204;28;20472;-88
2023/02/06 10:09:57;;;;;;;5.57;3.00;;;;;;;;;;4939535;29;20444;-89
2023/02/06 10:12:41;;;;;;;8.30;3.03;;;12.70;99.90;;;;;;4940200;29;20774;-91
2023/02/06 10:15:24;;;;;;;6.57;2.43;;;11.90;99.90;;;;;;4943335;29;20448;-91
2023/02/06 10:17:59;;;;;;;9.23;2.97;;;11.80;99.90;;;;;;4939389;29;20512;-91
2023/02/06 10:20:35;;;;;;;3.53;2.10;;;11.70;99.90;;;;;;4935140;29;20535;-89
2023/02/06 10:23:23;;;;;;;5.47;1.97;;;11.20;1.00;;;;;;4937396;29;20504;-94
2023/02/06 10:26:05;;;;;;;6.10;3.10;;;10.00;99.90;;;;;;4936175;29;20453;-90
2023/02/06 10:28:34;;;;;;;6.83;2.70;;;9.80;99.90;;;;;;4936142;29;20509;-89
2023/02/06 10:31:23;;;;;;;4.17;1.97;;;10.30;99.90;;;;;;4936074;29;20425;-91
2023/02/06 10:33:54;;;;;;;8.93;2.43;;;10.50;99.90;;;;;;4936671;29;20418;-94
2023/02/06 10:36:40;;;;;;;7.40;2.50;;;11.20;99.90;;;;;;4938260;29;20433;-94
2023/02/06 10:39:35;;;;;;;6.60;1.80;;;11.90;99.90;;;;;;4939338;29;20425;-95
2023/02/06 10:42:13;;;;;;;5.53;2.40;;;11.60;99.90;;;;;;4935610;29;20472;-94
2023/02/06 10:45:01;;;;;;;9.40;2.80;;;12.20;99.90;;;;;;4935870;29;20437;-91
2023/02/06 10:47:42;;;;;;;5.67;2.30;;;13.20;99.90;;;;;;4936597;29;20425;-86
2023/02/06 10:50:29;;;;;;;5.90;1.70;;;13.50;99.90;;;;;;4947460;29;20417;-93
2023/02/06 10:53:03;;;;;;;9.70;3.07;;;13.80;99.90;;;;;;4940339;29;20418;-94
2023/02/06 10:55:42;;;;;;;5.23;1.40;;;13.50;99.90;;;;;;4952961;28;20471;-95
2023/02/06 10:58:17;;;;;;;6.30;2.33;;;13.70;99.90;;;;;;4967199;28;20428;-93
2023/02/06 11:00:45;;;;;;;5.13;1.73;;;12.70;99.90;;;;;;4969424;28;20523;-94
2023/02/06 11:03:17;;;;;;;3.10;1.47;;;13.90;99.90;;;;;;4971198;29;20427;-90
2023/02/06 11:05:42;;;;;;;4.97;2.17;;;14.00;99.90;;;;;;4969712;29;20421;-92
2023/02/06 11:08:19;;;;;;;6.13;2.33;;;13.70;99.90;;;;;;4975343;28;20439;-94
2023/02/06 11:10:45;;;;;;;6.50;2.70;;;13.00;99.90;;;;;;4977320;28;20219;-92
2023/02/06 11:13:26;;;;;;;7.30;2.57;;;;;;;;;;4975076;28;20424;-90
2023/02/06 11:15:52;;;;;;;5.33;2.63;;;;;;;;;;4958978;28;20184;-94
2023/02/06 11:18:23;;;;;;;7.10;3.10;;;13.10;99.90;;;;;;4957684;28;20936;-86
2023/02/06 11:20:50;;;;;;;5.63;2.40;;;13.20;99.90;;;;;;4957216;28;20491;-85
2023/02/06 11:23:21;;;;;;;7.57;2.80;;;12.50;99.90;;;;;;4957383;29;20984;-89
2023/02/06 11:26:14;;;;;;;4.97;2.50;;;11.10;99.90;;;;;;4956147;28;20455;-85
2023/02/06 11:29:07;;;;;;;6.73;2.10;;;12.00;99.90;;;;;;4957444;28;20778;-86
2023/02/06 11:31:37;;;;;;;3.17;1.60;;;11.90;99.90;;;;;;4957376;28;20438;-82
2023/02/06 11:34:03;;;;;;;3.50;1.43;;;12.00;99.90;;;;;;4957269;28;20435;-85
2023/02/06 11:36:36;;;;;;;6.43;2.40;;;12.50;99.90;;;;;;4957380;29;20419;-87
2023/02/06 11:39:05;;;;;;;6.50;2.50;;;11.60;99.90;;;;;;4967120;28;20508;-88
2023/02/06 11:41:31;;;;;;;4.10;2.00;;;11.00;1.00;;;;;;4964103;28;20488;-87
2023/02/06 11:44:05;;;;;;;5.63;2.47;;;12.30;99.90;;;;;;4978070;28;20414;-88
2023/02/06 11:46:35;;;;;;;8.87;2.30;;;13.20;99.90;;;;;;4975976;28;20829;-88
2023/02/06 11:49:03;;;;;;;7.47;2.23;;;;;;;;;;4982520;28;20440;-84
2023/02/06 11:51:53;;;;;;;2.50;1.60;;;12.10;99.90;;;;;;4960724;28;20957;-85
2023/02/06 11:54:29;;;;;;;7.40;1.30;;;11.20;99.90;;;;;;4968153;28;20450;-91
2023/02/06 11:57:19;;;;;;;4.43;1.97;;;10.80;1.00;;;;;;4977659;28;20431;-91
2023/02/06 11:59:58;;;;;;;7.03;2.07;;;12.60;99.90;;;;;;4967881;28;20419;-89
2023/02/06 12:02:32;;;;;;;4.80;1.60;;;12.70;99.90;;;;;;4977391;28;20485;-89
2023/02/06 12:05:01;;;;;;;5.80;2.80;;;;;;;;;;4945118;28;20517;-91
2023/02/06 12:07:38;;;;;;;4.73;2.53;;;12.30;99.90;;;;;;4960277;28;20426;-90
2023/02/06 12:10:13;;;;;;;5.30;2.70;;;13.30;99.90;;;;;;4961437;28;20487;-84
2023/02/06 12:12:44;;;;;;;6.23;3.07;;;13.10;99.90;;;;;;4979216;28;20411;-91
2023/02/06 12:15:14;;;;;;;6.43;2.63;;;13.30;99.90;;;;;;4977902;28;20461;-88
2023/02/06 12:17:44;;;;;;;6.03;3.20;;;11.90;99.90;;;;;;4979418;28;20412;-90
2023/02/06 12:20:17;;;;;;;6.80;3.13;;;11.40;99.90;;;;;;4977271;28;20443;-91
2023/02/06 12:22:49;;;;;;;5.20;2.57;;;11.70;99.90;;;;;;4993100;28;20432;-87
2023/02/06 12:25:21;;;;;;;10.30;3.10;;;12.60;99.90;;;;;;4992619;28;20943;-87
2023/02/06 12:27:48;;;;;;;4.40;2.37;;;12.80;99.90;;;;;;4984961;28;20423;-90
2023/02/06 12:30:25;;;;;;;5.37;3.00;;;13.20;99.90;;;;;;4978724;28;20900;-94
2023/02/06 12:32:54;;;;;;;6.27;2.97;;;;;;;;;;4978460;28;20423;-92
2023/02/06 12:35:34;;;;;;;5.60;2.53;;;;;;;;;;4977172;28;20414;-90
2023/02/06 12:38:06;;;;;;;2.50;1.70;;;;;;;;;;4979411;28;20415;-88
2023/02/06 12:41:05;;;;;;;4.70;2.37;;;13.90;1.00;;;;;;4975577;28;20450;-90
2023/02/06 12:43:34;;;;;;;3.70;2.17;;;13.60;1.00;;;;;;4976885;28;20427;-92
2023/02/06 12:46:03;;;;;;;3.53;2.57;;;;;;;;;;4995635;28;20428;-91
2023/02/06 12:48:53;;;;;;;5.57;2.83;;;13.50;1.00;;;;;;4994757;28;20401;-92
2023/02/06 12:51:37;;;;;;;3.83;2.20;;;13.20;99.90;;;;;;4979003;28;20415;-90
2023/02/06 12:54:11;;;;;;;5.73;1.97;;;;;;;;;;4976930;28;20462;-91
2023/02/06 12:56:42;;;;;;;4.67;2.20;;;11.90;1.00;;;;;;4997212;28;20485;-90
2023/02/06 12:59:08;;;;;;;5.13;2.10;;;;;;;;;;4998079;28;20472;-90
2023/02/06 13:02:04;;;;;;;4.33;2.40;;;12.10;99.90;;;;;;4998703;28;20477;-90
2023/02/06 13:04:32;;;;;;;6.07;2.73;;;;;;;;;;4996185;28;20226;-92
2023/02/06 13:07:06;;;;;;;7.23;3.47;;;;;;;;;;4997653;28;20431;-87
2023/02/06 13:09:34;;;;;;;4.03;2.80;;;;;;;;;;4998090;28;20944;-94
2023/02/06 13:12:14;;;;;;;4.20;2.60;;;;;;;;;;5000523;28;20419;-88
2023/02/06 13:14:48;;;;;;;4.30;1.90;;;;;;;;;;4983830;28;20419;-90
2023/02/06 13:17:16;;;;;;;4.43;3.17;;;;;;;;;;4976287;28;20512;-90
2023/02/06 13:19:42;;;;;;;6.60;3.47;;;;;;;;;;4976700;28;20408;-90
2023/02/06 13:22:08;;;;;;;8.30;2.67;;;;;;;;;;4974574;28;20486;-86
2023/02/06 13:24:34;;;;;;;7.53;2.93;;;;;;;;;;4976127;28;20176;-85
2023/02/06 13:27:01;;;;;;;6.90;3.60;;;;;;;;;;4950647;28;20445;-83
2023/02/06 13:29:36;;;;;;;8.67;3.00;;;;;;;;;;4961087;28;20429;-80
2023/02/06 13:32:13;;;;;;;6.43;3.10;;;;;;;;;;4975159;28;20911;-83
2023/02/06 13:34:44;;;;;;;6.67;2.10;;;;;;;;;;4973592;28;20929;-84
2023/02/06 13:37:28;;;;;;;5.20;3.17;;;;;;;;;;4974489;28;20415;-85
2023/02/06 13:40:13;;;;;;;5.03;3.07;;;;;;;;;;4972678;28;20945;-84
2023/02/06 13:42:56;;;;;;;5.27;3.10;;;;;;;;;;4973742;28;20436;-84
2023/02/06 13:45:32;;;;;;;5.13;2.90;;;;;;;;;;4971399;28;20432;-84
2023/02/06 13:48:04;;;;;;;2.80;1.80;;;;;;;;;;4974648;28;20407;-82
2023/02/06 13:50:30;;;;;;;5.90;2.50;;;;;;;;;;4973219;28;20444;-83
2023/02/06 13:53:08;;;;;;;5.97;2.90;;;;;;;;;;4973120;28;20451;-84
2023/02/06 13:55:37;;;;;;;3.80;2.10;;;;;;;;;;4974341;28;20451;-83
2023/02/06 13:58:27;;;;;;;3.50;2.30;;;;;;;;;;4974195;28;20416;-83
2023/02/06 14:00:54;;;;;;;4.47;2.33;;;;;;;;;;4974323;28;20475;-84
2023/02/06 14:03:29;;;;;;;8.10;2.43;;;;;;;;;;4974176;28;20415;-81
2023/02/06 14:05:55;;;;;;;4.63;1.80;;;;;;;;;;4973090;28;20413;-83
2023/02/06 14:08:30;;;;;;;5.73;1.90;;;;;;;;;;4972424;28;20866;-84
2023/02/06 14:11:22;;;;;;;5.87;1.97;;;;;;;;;;4974202;28;20405;-81
2023/02/06 14:14:13;;;;;;;7.10;2.73;;;;;;;;;;4986468;28;20450;-85
2023/02/06 14:17:01;;;;;;;5.80;2.37;;;;;;;;;;4989168;28;20411;-83
2023/02/06 14:19:42;;;;;;;5.20;2.07;;;;;;;;;;4974030;28;20466;-85
2023/02/06 14:22:08;;;;;;;9.00;2.97;;;;;;;;;;4988622;28;20478;-85
2023/02/06 14:24:34;;;;;;;5.73;2.00;;;;;;;;;;4973901;28;20418;-85
2023/02/06 14:27:03;;;;;;;9.00;2.23;;;;;;;;;;4989175;28;20435;-86
2023/02/06 14:29:45;;;;;;;4.10;1.60;;;;;;;;;;4938602;28;20844;-85
2023/02/06 14:32:40;;;;;;;3.70;1.97;;;;;;;;;;4974026;28;20415;-86
2023/02/06 14:35:21;;;;;;;5.30;2.30;;;;;;;;;;4957456;28;20795;-86
2023/02/06 14:37:52;;;;;;;3.20;1.50;;;;;;;;;;4973609;28;20418;-84
2023/02/06 14:40:23;;;;;;;3.33;2.00;;;;;;;;;;4979802;28;20429;-87
2023/02/06 14:42:50;;;;;;;2.20;1.17;;;;;;;;;;4975892;28;20895;-83